Time;durP1;ratioP1;P1;durP2;ratioP2;P2;SDS_P1;SDS_P2;PMS_P1;PMS_P2;Temp;Humidity;BMP_temperature;BMP_pressure;BME280_temperature;BME280_humidity;BME280_pressure;Samples;Min_cycle;Max_cycle;Signal;HPM_P1;HPM_P2
2022/08/03 00:02:25;;;;;;;3.10;2.30;;;19.80;99.90;;;;;;5092574;28;20677;-44
2022/08/03 00:04:51;;;;;;;2.70;2.40;;;19.90;99.90;;;;;;5091068;28;20299;-43
2022/08/03 00:07:17;;;;;;;2.80;2.03;;;19.80;99.90;;;;;;5091811;28;20709;-46
2022/08/03 00:09:43;;;;;;;2.90;2.53;;;19.80;99.90;;;;;;5081800;28;20277;-43
2022/08/03 00:12:09;;;;;;;2.60;2.23;;;19.80;99.90;;;;;;5089428;28;20659;-43
2022/08/03 00:14:34;;;;;;;1.97;1.80;;;19.80;99.90;;;;;;5092400;28;20203;-43
2022/08/03 00:17:00;;;;;;;6.90;2.83;;;19.70;99.90;;;;;;5091671;28;20454;-43
2022/08/03 00:19:26;;;;;;;2.60;2.40;;;19.70;99.90;;;;;;5091126;28;20195;-45
2022/08/03 00:21:52;;;;;;;2.37;2.17;;;19.60;99.90;;;;;;5092245;28;20574;-42
2022/08/03 00:24:18;;;;;;;3.90;2.53;;;19.70;99.90;;;;;;5092219;28;20445;-43
2022/08/03 00:26:44;;;;;;;2.90;2.10;;;19.80;99.90;;;;;;5090441;28;20717;-44
2022/08/03 00:29:10;;;;;;;4.17;2.43;;;19.80;99.90;;;;;;5092000;28;20238;-42
2022/08/03 00:31:35;;;;;;;4.00;2.57;;;19.80;99.90;;;;;;5092031;28;20188;-43
2022/08/03 00:34:01;;;;;;;3.20;2.37;;;19.80;99.90;;;;;;5091849;28;20505;-43
2022/08/03 00:36:27;;;;;;;3.30;2.37;;;19.80;99.90;;;;;;5092105;28;20193;-42
2022/08/03 00:38:53;;;;;;;4.77;2.77;;;19.80;99.90;;;;;;5091483;28;20192;-42
2022/08/03 00:41:19;;;;;;;5.50;2.53;;;19.80;99.90;;;;;;5091852;28;20851;-44
2022/08/03 00:43:46;;;;;;;3.30;2.50;;;19.90;99.90;;;;;;5090720;28;20522;-44
2022/08/03 00:46:12;;;;;;;2.80;2.50;;;19.90;99.90;;;;;;5091766;28;20245;-43
2022/08/03 00:48:39;;;;;;;4.77;2.70;;;20.00;99.90;;;;;;5090956;28;20468;-44
2022/08/03 00:51:05;;;;;;;2.97;2.10;;;20.00;99.90;;;;;;5091484;28;20422;-45
2022/08/03 00:53:32;;;;;;;3.07;2.40;;;20.00;99.90;;;;;;5091754;28;20476;-45
2022/08/03 00:55:58;;;;;;;2.50;2.30;;;20.00;99.90;;;;;;5091449;28;20425;-44
2022/08/03 00:58:23;;;;;;;2.20;2.00;;;20.10;99.90;;;;;;5091007;28;20754;-45
2022/08/03 01:00:49;;;;;;;3.10;2.40;;;20.10;99.90;;;;;;5091436;28;20429;-43
2022/08/03 01:03:15;;;;;;;4.00;2.53;;;20.20;99.90;;;;;;5091155;28;20271;-45
2022/08/03 01:05:49;;;;;;;3.00;2.40;;;20.20;99.90;;;;;;5089998;28;20230;-43
2022/08/03 01:08:33;;;;;;;3.90;2.27;;;20.20;99.90;;;;;;5090778;28;20219;-46
2022/08/03 01:11:23;;;;;;;5.00;2.70;;;20.30;99.90;;;;;;5078094;28;20962;-43
2022/08/03 01:14:29;;;;;;;6.53;3.00;;;20.30;99.90;;;;;;5091239;28;20424;-45
2022/08/03 01:16:56;;;;;;;8.60;2.77;;;20.30;99.90;;;;;;5061955;28;20442;-43
2022/08/03 01:19:47;;;;;;;3.20;2.90;;;20.30;99.90;;;;;;5089778;28;20445;-42
2022/08/03 01:22:30;;;;;;;2.53;2.33;;;20.20;99.90;;;;;;5091279;28;20422;-43
2022/08/03 01:25:09;;;;;;;2.60;2.40;;;20.10;99.90;;;;;;5090968;28;20434;-42
2022/08/03 01:28:08;;;;;;;4.37;2.30;;;20.20;99.90;;;;;;5090683;28;20801;-44
2022/08/03 01:30:39;;;;;;;6.93;2.50;;;20.10;99.90;;;;;;5091079;28;20465;-43
2022/08/03 01:33:14;;;;;;;3.50;2.50;;;20.20;99.90;;;;;;5090895;28;20427;-42
2022/08/03 01:35:52;;;;;;;3.13;2.23;;;20.10;99.90;;;;;;5090828;28;20815;-43
2022/08/03 01:38:24;;;;;;;2.50;2.30;;;20.20;99.90;;;;;;5090386;28;20944;-44
2022/08/03 01:40:53;;;;;;;2.83;2.40;;;20.00;99.90;;;;;;5090558;28;20427;-43
2022/08/03 01:43:23;;;;;;;2.57;2.13;;;19.90;99.90;;;;;;5089619;28;20449;-46
2022/08/03 01:45:50;;;;;;;3.47;2.27;;;19.80;99.90;;;;;;5090530;28;20426;-46
2022/08/03 01:48:17;;;;;;;3.60;2.80;;;19.60;99.90;;;;;;5090034;28;20454;-43
2022/08/03 01:50:45;;;;;;;2.50;2.30;;;19.60;99.90;;;;;;5090352;28;20782;-45
2022/08/03 01:53:15;;;;;;;3.50;2.50;;;19.50;99.90;;;;;;5090311;28;20430;-43
2022/08/03 01:55:45;;;;;;;6.67;2.80;;;19.50;99.90;;;;;;5090495;28;20415;-44
2022/08/03 01:58:14;;;;;;;2.87;2.53;;;19.40;99.90;;;;;;5089877;28;20426;-45
2022/08/03 02:00:40;;;;;;;2.80;2.33;;;19.40;99.90;;;;;;5090437;28;20425;-43
2022/08/03 02:03:07;;;;;;;2.63;2.40;;;19.40;99.90;;;;;;5090243;28;21014;-43
2022/08/03 02:05:34;;;;;;;3.60;2.40;;;19.30;99.90;;;;;;5090084;28;20499;-47
2022/08/03 02:08:02;;;;;;;3.20;2.53;;;19.30;99.90;;;;;;5089678;28;20431;-45
2022/08/03 02:10:29;;;;;;;3.80;2.57;;;19.30;99.90;;;;;;5076847;28;20414;-43
2022/08/03 02:12:57;;;;;;;3.10;2.17;;;19.30;99.90;;;;;;5089921;28;20437;-44
2022/08/03 02:15:23;;;;;;;3.00;2.60;;;19.30;99.90;;;;;;5090366;28;20422;-45
2022/08/03 02:17:50;;;;;;;2.73;2.43;;;19.30;99.90;;;;;;5089500;28;20780;-44
2022/08/03 02:20:17;;;;;;;3.10;2.80;;;19.30;99.90;;;;;;5088399;28;20517;-42
2022/08/03 02:22:43;;;;;;;4.93;3.00;;;19.30;99.90;;;;;;5089407;28;20422;-43
2022/08/03 02:25:11;;;;;;;3.50;2.40;;;19.20;99.90;;;;;;5089912;28;20488;-42
2022/08/03 02:27:44;;;;;;;4.37;2.90;;;19.20;99.90;;;;;;5089434;28;20426;-42
2022/08/03 02:30:12;;;;;;;5.53;2.57;;;19.20;99.90;;;;;;5089813;28;20473;-44
2022/08/03 02:32:41;;;;;;;6.07;2.97;;;19.10;99.90;;;;;;5089754;28;20468;-42
2022/08/03 02:35:11;;;;;;;2.93;2.60;;;19.20;99.90;;;;;;5089831;28;20913;-44
2022/08/03 02:37:43;;;;;;;2.50;2.30;;;19.20;99.90;;;;;;5089414;28;20517;-46
2022/08/03 02:40:11;;;;;;;3.87;2.80;;;19.20;99.90;;;;;;5089837;28;20452;-42
2022/08/03 02:42:39;;;;;;;3.90;2.40;;;19.10;99.90;;;;;;5089830;28;20430;-42
2022/08/03 02:45:09;;;;;;;6.07;2.67;;;19.10;99.90;;;;;;5089700;28;20434;-43
2022/08/03 02:47:36;;;;;;;5.20;2.40;;;19.40;99.90;;;;;;5089168;28;20509;-43
2022/08/03 02:50:03;;;;;;;3.10;2.30;;;19.40;99.90;;;;;;5089795;28;20454;-47
2022/08/03 02:52:32;;;;;;;2.60;2.40;;;19.40;99.90;;;;;;5089729;28;21144;-42
2022/08/03 02:55:01;;;;;;;3.33;2.53;;;19.30;99.90;;;;;;5089746;28;20529;-43
2022/08/03 02:57:28;;;;;;;2.73;2.53;;;19.30;99.90;;;;;;5089033;28;20530;-44
2022/08/03 02:59:55;;;;;;;3.60;2.60;;;19.40;99.90;;;;;;5089704;28;20422;-43
2022/08/03 03:02:23;;;;;;;6.40;2.97;;;19.50;99.90;;;;;;5089505;28;20429;-43
2022/08/03 03:04:52;;;;;;;4.33;2.90;;;19.50;99.90;;;;;;5089482;28;20435;-43
2022/08/03 03:07:19;;;;;;;4.80;3.27;;;19.50;99.90;;;;;;5089047;28;20775;-45
2022/08/03 03:09:45;;;;;;;3.47;2.50;;;19.50;99.90;;;;;;5079021;28;21062;-45
2022/08/03 03:12:12;;;;;;;4.93;2.93;;;19.50;99.90;;;;;;5086608;28;20457;-45
2022/08/03 03:14:38;;;;;;;2.90;2.60;;;19.50;99.90;;;;;;5089694;28;20579;-43
2022/08/03 03:17:07;;;;;;;5.00;2.43;;;19.50;99.90;;;;;;5088864;28;20418;-42
2022/08/03 03:19:35;;;;;;;3.30;3.00;;;19.40;99.90;;;;;;5088122;28;20450;-42
2022/08/03 03:22:02;;;;;;;2.57;2.37;;;19.30;99.90;;;;;;5089316;28;20438;-42
2022/08/03 03:24:29;;;;;;;5.37;2.70;;;19.30;99.90;;;;;;5089410;28;20438;-45
2022/08/03 03:26:56;;;;;;;3.80;2.70;;;19.20;99.90;;;;;;5088586;28;20476;-42
2022/08/03 03:29:22;;;;;;;2.93;2.63;;;19.20;99.90;;;;;;5089430;28;20458;-43
2022/08/03 03:31:48;;;;;;;3.90;2.77;;;19.10;99.90;;;;;;5089305;28;20478;-44
2022/08/03 03:34:14;;;;;;;4.17;2.90;;;19.10;99.90;;;;;;5090884;28;20982;-43
2022/08/03 03:36:40;;;;;;;4.93;2.80;;;19.00;99.90;;;;;;5092631;28;20187;-42
2022/08/03 03:39:06;;;;;;;3.70;2.93;;;18.90;99.90;;;;;;5093035;28;20756;-42
2022/08/03 03:41:32;;;;;;;3.57;2.43;;;18.90;99.90;;;;;;5092856;28;20421;-42
2022/08/03 03:43:58;;;;;;;5.43;3.20;;;18.90;99.90;;;;;;5093164;28;20663;-44
2022/08/03 03:46:24;;;;;;;3.30;2.70;;;18.90;99.90;;;;;;5092854;28;20219;-45
2022/08/03 03:48:50;;;;;;;4.50;3.57;;;18.90;99.90;;;;;;5092361;28;20458;-45
2022/08/03 03:51:16;;;;;;;3.10;2.70;;;18.80;99.90;;;;;;5092697;28;20425;-44
2022/08/03 03:53:58;;;;;;;3.63;2.57;;;18.80;99.90;;;;;;5092934;28;20257;-43
2022/08/03 03:56:24;;;;;;;4.63;2.90;;;18.80;99.90;;;;;;5093068;28;20268;-42
2022/08/03 03:58:50;;;;;;;3.67;3.17;;;18.80;99.90;;;;;;5091922;28;20457;-43
2022/08/03 04:01:16;;;;;;;3.53;2.50;;;18.80;99.90;;;;;;5092791;28;20785;-44
2022/08/03 04:03:42;;;;;;;3.30;3.00;;;18.80;99.90;;;;;;5092670;28;20922;-45
2022/08/03 04:11:40;;;;;;;7.60;3.63;;;18.70;99.90;;;;;;5085132;28;20423;-45
2022/08/03 04:14:13;;;;;;;3.20;2.90;;;18.70;99.90;;;;;;5092352;28;20418;-42
2022/08/03 04:16:41;;;;;;;3.27;2.53;;;18.70;99.90;;;;;;5091886;28;20465;-44
2022/08/03 04:19:12;;;;;;;2.90;2.57;;;18.70;99.90;;;;;;5090576;28;20451;-42
2022/08/03 04:21:43;;;;;;;3.40;3.10;;;18.70;99.90;;;;;;5092368;28;20517;-44
2022/08/03 04:24:10;;;;;;;6.40;2.90;;;18.70;99.90;;;;;;5092231;28;20441;-43
2022/08/03 04:26:40;;;;;;;6.60;2.70;;;18.70;99.90;;;;;;5091872;28;20940;-43
2022/08/03 04:29:08;;;;;;;2.93;2.73;;;18.70;99.90;;;;;;5090821;28;20465;-44
2022/08/03 04:31:35;;;;;;;3.10;2.80;;;18.70;99.90;;;;;;5091857;28;21204;-45
2022/08/03 04:34:01;;;;;;;3.70;2.80;;;18.70;99.90;;;;;;5092213;28;20479;-43
2022/08/03 04:36:31;;;;;;;3.43;2.63;;;18.70;99.90;;;;;;5091980;28;20905;-42
2022/08/03 04:39:01;;;;;;;3.50;2.60;;;18.80;99.90;;;;;;5091807;28;20529;-45
2022/08/03 04:41:28;;;;;;;3.47;3.17;;;18.80;99.90;;;;;;5091914;28;20509;-47
2022/08/03 04:43:56;;;;;;;5.40;3.50;;;18.80;99.90;;;;;;5089830;28;20487;-44
2022/08/03 04:46:27;;;;;;;5.13;2.57;;;18.90;99.90;;;;;;5096307;28;20410;-45
2022/08/03 04:48:54;;;;;;;3.53;2.83;;;19.00;99.90;;;;;;5106158;28;20472;-44
2022/08/03 04:51:21;;;;;;;5.60;2.90;;;19.00;99.90;;;;;;5091430;28;20426;-42
2022/08/03 04:53:46;;;;;;;3.27;2.80;;;19.10;99.90;;;;;;5091544;28;20414;-48
2022/08/03 04:56:12;;;;;;;4.53;2.83;;;19.20;99.90;;;;;;5091555;28;20488;-42
2022/08/03 04:58:38;;;;;;;3.37;2.80;;;19.30;99.90;;;;;;5102902;28;20241;-43
2022/08/03 05:01:04;;;;;;;3.40;2.83;;;19.30;99.90;;;;;;5091645;28;20184;-43
2022/08/03 05:03:30;;;;;;;4.63;2.63;;;19.50;99.90;;;;;;5090304;28;20581;-43
2022/08/03 05:05:56;;;;;;;3.03;2.73;;;19.50;99.90;;;;;;5091447;28;20204;-42
2022/08/03 05:08:22;;;;;;;3.80;3.10;;;19.60;99.90;;;;;;5090700;28;20454;-42
2022/08/03 05:10:48;;;;;;;6.87;3.07;;;19.70;99.90;;;;;;5091449;28;20192;-45
2022/08/03 05:13:13;;;;;;;3.97;2.67;;;19.80;99.90;;;;;;5084296;28;20580;-45
2022/08/03 05:15:40;;;;;;;3.03;2.80;;;19.90;99.90;;;;;;5099446;28;20181;-42
2022/08/03 05:18:06;;;;;;;4.20;3.10;;;20.00;99.90;;;;;;5083140;28;20184;-45
2022/08/03 05:20:32;;;;;;;4.63;2.93;;;20.00;99.90;;;;;;5088302;28;20947;-42
2022/08/03 05:23:00;;;;;;;4.27;2.57;;;20.10;99.90;;;;;;5090914;28;20410;-45
2022/08/03 05:25:26;;;;;;;4.50;2.73;;;20.20;99.90;;;;;;5089928;28;20187;-42
2022/08/03 05:27:52;;;;;;;3.43;2.40;;;20.20;99.90;;;;;;5097315;28;20427;-44
2022/08/03 05:30:18;;;;;;;2.47;2.27;;;20.40;99.90;;;;;;5104062;28;20518;-42
2022/08/03 05:32:44;;;;;;;5.67;2.83;;;20.50;99.90;;;;;;5098059;28;20192;-44
2022/08/03 05:35:09;;;;;;;2.47;2.27;;;20.70;99.90;;;;;;5090927;28;20418;-47
2022/08/03 05:37:35;;;;;;;3.43;3.10;;;20.80;99.90;;;;;;5088974;28;20183;-43
2022/08/03 05:40:01;;;;;;;3.37;2.60;;;20.80;99.90;;;;;;5102059;28;20522;-44
2022/08/03 05:42:27;;;;;;;2.80;2.50;;;20.90;99.90;;;;;;5097635;28;20193;-45
2022/08/03 05:44:52;;;;;;;4.23;2.97;;;20.90;99.90;;;;;;5088500;28;20511;-43
2022/08/03 05:47:18;;;;;;;3.70;3.10;;;21.00;99.90;;;;;;5100736;28;20195;-43
2022/08/03 05:49:44;;;;;;;4.50;2.97;;;21.10;99.90;;;;;;5095210;28;20940;-44
2022/08/03 05:52:09;;;;;;;3.27;2.77;;;21.20;99.90;;;;;;5097885;28;20188;-43
2022/08/03 05:54:35;;;;;;;3.07;2.63;;;21.20;99.90;;;;;;5099476;28;20180;-42
2022/08/03 05:57:01;;;;;;;3.80;2.77;;;21.30;99.90;;;;;;5089328;28;20195;-43
2022/08/03 05:59:27;;;;;;;5.03;2.83;;;21.50;99.90;;;;;;5090443;28;20189;-45
2022/08/03 06:01:52;;;;;;;6.30;2.90;;;21.60;99.90;;;;;;5089707;28;20216;-42
2022/08/03 06:04:18;;;;;;;4.43;3.13;;;21.80;99.90;;;;;;5090114;28;20711;-42
2022/08/03 06:06:44;;;;;;;3.73;3.43;;;21.90;99.90;;;;;;5090464;28;20235;-45
2022/08/03 06:09:09;;;;;;;5.43;4.10;;;22.10;99.90;;;;;;5088442;28;20211;-46
2022/08/03 06:11:36;;;;;;;4.57;3.77;;;22.10;99.90;;;;;;5101298;28;20211;-42
2022/08/03 06:14:02;;;;;;;5.33;3.20;;;22.30;99.90;;;;;;5090982;28;20172;-47
2022/08/03 06:16:28;;;;;;;4.80;3.30;;;22.40;99.90;;;;;;5090241;28;20503;-43
2022/08/03 06:18:54;;;;;;;4.60;3.57;;;22.50;99.90;;;;;;5088035;28;20481;-47
2022/08/03 06:21:19;;;;;;;4.90;4.10;;;22.70;99.90;;;;;;5090103;28;20190;-43
2022/08/03 06:23:46;;;;;;;5.87;3.90;;;22.90;99.90;;;;;;5089970;28;20234;-48
2022/08/03 06:26:12;;;;;;;4.23;3.83;;;23.10;99.90;;;;;;5089725;28;20181;-44
2022/08/03 06:28:38;;;;;;;5.00;3.80;;;23.20;99.90;;;;;;5089153;28;21052;-43
2022/08/03 06:31:04;;;;;;;5.20;3.80;;;23.30;99.90;;;;;;5089910;28;20189;-45
2022/08/03 06:33:30;;;;;;;4.40;3.87;;;23.40;99.90;;;;;;5082829;28;20176;-43
2022/08/03 06:35:55;;;;;;;3.80;3.50;;;23.60;99.90;;;;;;5087320;28;20924;-45
2022/08/03 06:38:22;;;;;;;4.53;4.07;;;23.70;99.90;;;;;;5087013;28;20177;-43
2022/08/03 06:40:47;;;;;;;4.60;4.20;;;23.90;99.90;;;;;;5089448;28;20589;-45
2022/08/03 06:43:14;;;;;;;4.90;4.40;;;24.00;99.90;;;;;;5088032;28;20479;-44
2022/08/03 06:45:40;;;;;;;5.93;4.00;;;24.10;99.90;;;;;;5089237;28;20192;-43
2022/08/03 06:48:08;;;;;;;7.43;4.57;;;24.30;99.90;;;;;;5088283;28;20871;-43
2022/08/03 06:50:36;;;;;;;4.80;3.87;;;24.40;99.90;;;;;;5087216;28;20470;-43
2022/08/03 06:53:02;;;;;;;4.60;4.17;;;24.50;99.90;;;;;;5089165;28;20886;-43
2022/08/03 06:55:28;;;;;;;4.63;4.00;;;24.60;99.90;;;;;;5089838;28;20421;-43
2022/08/03 06:57:54;;;;;;;5.20;4.30;;;24.70;99.90;;;;;;5088889;28;20423;-47
2022/08/03 07:00:20;;;;;;;8.93;4.20;;;24.80;99.90;;;;;;5088538;28;20433;-45
2022/08/03 07:02:47;;;;;;;4.77;4.30;;;24.80;99.90;;;;;;5089524;28;20426;-43
2022/08/03 07:05:13;;;;;;;5.00;3.70;;;24.90;99.90;;;;;;5089417;28;20438;-47
2022/08/03 07:07:39;;;;;;;4.53;3.90;;;24.90;99.90;;;;;;5073933;28;20456;-45
2022/08/03 07:10:06;;;;;;;8.50;3.97;;;25.00;99.90;;;;;;5092332;28;20472;-42
2022/08/03 07:12:34;;;;;;;5.03;4.53;;;25.00;99.90;;;;;;5091888;28;20429;-43
2022/08/03 07:15:01;;;;;;;4.50;4.00;;;25.00;99.90;;;;;;5092894;28;20420;-42
2022/08/03 07:17:27;;;;;;;4.40;4.00;;;25.10;99.90;;;;;;5087498;28;20966;-43
2022/08/03 07:19:53;;;;;;;4.17;3.77;;;25.10;99.90;;;;;;5091261;28;20449;-43
2022/08/03 07:22:19;;;;;;;4.40;4.00;;;25.10;99.90;;;;;;5092860;28;20457;-44
2022/08/03 07:24:46;;;;;;;7.67;3.97;;;25.20;99.90;;;;;;5093166;28;20604;-45
2022/08/03 07:27:12;;;;;;;5.00;3.50;;;25.20;99.90;;;;;;5091161;28;20207;-45
2022/08/03 07:29:38;;;;;;;4.40;4.00;;;25.20;99.90;;;;;;5092910;28;21044;-43
2022/08/03 07:32:04;;;;;;;4.07;3.67;;;25.30;99.90;;;;;;5093254;28;20301;-48
2022/08/03 07:34:30;;;;;;;4.63;4.00;;;25.40;99.90;;;;;;5093110;28;20180;-43
2022/08/03 07:36:56;;;;;;;6.50;3.63;;;25.50;99.90;;;;;;5092020;28;20422;-45
2022/08/03 07:39:22;;;;;;;4.10;3.63;;;25.60;99.90;;;;;;5093035;28;20426;-44
2022/08/03 07:41:50;;;;;;;5.60;3.60;;;25.60;99.90;;;;;;5091867;28;20216;-44
2022/08/03 07:44:16;;;;;;;4.70;3.90;;;25.70;99.90;;;;;;5092820;28;21034;-44
2022/08/03 07:46:42;;;;;;;5.40;3.53;;;25.80;99.90;;;;;;5092370;28;20418;-44
2022/08/03 07:49:08;;;;;;;3.70;3.40;;;25.90;99.90;;;;;;5091435;28;20476;-44
2022/08/03 07:51:34;;;;;;;3.63;3.10;;;26.00;99.90;;;;;;5092725;28;20208;-43
2022/08/03 07:54:00;;;;;;;4.20;3.80;;;25.90;99.90;;;;;;5092809;28;20246;-43
2022/08/03 07:56:26;;;;;;;4.10;3.67;;;25.90;99.90;;;;;;5092482;28;20229;-43
2022/08/03 07:58:52;;;;;;;4.37;3.50;;;26.00;99.90;;;;;;5091809;28;20442;-42
2022/08/03 08:01:18;;;;;;;4.20;3.23;;;26.00;99.90;;;;;;5091992;28;20463;-43
2022/08/03 08:03:48;;;;;;;4.50;3.80;;;26.10;99.90;;;;;;5092350;28;20454;-43
2022/08/03 08:06:15;;;;;;;5.40;3.57;;;26.20;99.90;;;;;;5092278;28;20207;-43
2022/08/03 08:08:41;;;;;;;6.60;3.93;;;26.20;99.90;;;;;;5091815;28;20458;-42
2022/08/03 08:11:06;;;;;;;5.53;3.20;;;26.20;99.90;;;;;;5092498;28;20513;-43
2022/08/03 08:13:33;;;;;;;3.97;3.37;;;26.20;99.90;;;;;;5092184;28;20418;-43
2022/08/03 08:15:59;;;;;;;4.23;3.10;;;26.20;99.90;;;;;;5092508;28;20222;-45
2022/08/03 08:18:25;;;;;;;4.37;3.10;;;26.10;99.90;;;;;;5091393;28;20410;-43
2022/08/03 08:20:50;;;;;;;3.70;2.93;;;26.10;99.90;;;;;;5089553;28;20196;-42
2022/08/03 08:23:21;;;;;;;3.90;3.03;;;26.10;99.90;;;;;;5091927;28;20184;-48
2022/08/03 08:25:49;;;;;;;4.50;2.67;;;26.20;99.90;;;;;;5090594;28;20192;-43
2022/08/03 08:28:19;;;;;;;3.30;3.00;;;26.20;99.90;;;;;;5091421;28;20426;-43
2022/08/03 08:30:45;;;;;;;3.53;3.23;;;26.20;99.90;;;;;;5092236;28;20422;-45
2022/08/03 08:33:11;;;;;;;3.20;2.67;;;26.20;99.90;;;;;;5091735;28;20944;-46
2022/08/03 08:35:37;;;;;;;3.47;3.17;;;26.10;99.90;;;;;;5092277;28;20684;-43
2022/08/03 08:38:02;;;;;;;3.27;2.97;;;26.10;99.90;;;;;;5091473;28;20448;-43
2022/08/03 08:40:28;;;;;;;3.97;3.00;;;26.10;99.90;;;;;;5092010;28;20196;-44
2022/08/03 08:42:54;;;;;;;4.00;2.80;;;26.20;99.90;;;;;;5091904;28;20184;-44
2022/08/03 08:45:20;;;;;;;2.90;2.60;;;26.20;99.90;;;;;;5091876;28;20196;-44
2022/08/03 08:47:48;;;;;;;3.70;2.80;;;26.30;99.90;;;;;;5091056;28;20434;-45
2022/08/03 08:50:20;;;;;;;3.47;3.27;;;26.40;99.90;;;;;;5091711;28;21025;-43
2022/08/03 08:52:48;;;;;;;3.63;3.33;;;26.40;99.90;;;;;;5091786;28;20423;-42
2022/08/03 08:55:24;;;;;;;4.53;3.20;;;26.50;99.90;;;;;;5091816;28;20774;-46
2022/08/03 08:58:06;;;;;;;4.40;3.33;;;26.50;99.90;;;;;;5090921;28;20433;-44
2022/08/03 09:00:32;;;;;;;4.23;3.20;;;26.50;99.90;;;;;;5091684;28;20418;-43
2022/08/03 09:02:59;;;;;;;4.50;3.17;;;26.50;99.90;;;;;;5091493;28;20525;-43
2022/08/03 09:05:25;;;;;;;4.67;2.87;;;26.60;99.90;;;;;;5085246;28;20215;-42
2022/08/03 09:07:52;;;;;;;3.00;2.80;;;26.70;99.90;;;;;;5088531;28;20790;-44
2022/08/03 09:10:20;;;;;;;3.83;3.50;;;26.70;99.90;;;;;;5076693;28;20236;-44
2022/08/03 09:12:51;;;;;;;3.30;3.00;;;26.70;99.60;;;;;;5090725;28;20418;-43
2022/08/03 09:15:30;;;;;;;4.03;3.00;;;26.70;99.80;;;;;;5090209;28;21250;-42
2022/08/03 09:18:01;;;;;;;3.57;3.10;;;26.80;99.90;;;;;;5090800;28;20422;-43
2022/08/03 09:20:29;;;;;;;7.00;2.53;;;26.90;99.90;;;;;;5091143;28;20797;-43
2022/08/03 09:22:58;;;;;;;5.23;2.97;;;27.00;99.30;;;;;;5090006;28;20441;-42
2022/08/03 09:25:28;;;;;;;4.10;3.00;;;27.10;99.40;;;;;;5090835;28;20431;-42
2022/08/03 09:27:54;;;;;;;4.77;2.73;;;27.20;98.60;;;;;;5093887;28;20905;-43
2022/08/03 09:30:20;;;;;;;4.70;2.93;;;27.30;98.50;;;;;;5090918;28;20477;-45
2022/08/03 09:32:46;;;;;;;4.30;2.50;;;27.40;98.70;;;;;;5090377;28;20523;-44
2022/08/03 09:35:13;;;;;;;5.30;2.90;;;27.50;98.90;;;;;;5090844;28;20423;-46
2022/08/03 09:37:39;;;;;;;3.30;2.70;;;27.70;98.10;;;;;;5090086;28;20545;-43
2022/08/03 09:40:05;;;;;;;6.37;2.27;;;27.80;98.10;;;;;;5088816;28;20487;-42
2022/08/03 09:42:34;;;;;;;3.00;2.70;;;27.90;97.30;;;;;;5090791;28;20434;-43
2022/08/03 09:44:59;;;;;;;3.50;2.50;;;27.90;96.90;;;;;;5090837;28;20932;-44
2022/08/03 09:47:28;;;;;;;3.57;2.43;;;28.00;97.00;;;;;;5090143;28;20426;-43
2022/08/03 09:50:00;;;;;;;3.63;2.60;;;28.10;97.20;;;;;;5089006;28;20462;-43
2022/08/03 09:52:35;;;;;;;2.40;2.20;;;28.20;97.10;;;;;;5089079;28;20417;-43
2022/08/03 09:55:09;;;;;;;2.93;2.73;;;28.30;96.40;;;;;;5090660;28;20422;-42
2022/08/03 09:57:36;;;;;;;4.40;2.50;;;28.30;96.20;;;;;;5089811;28;20463;-44
2022/08/03 10:00:14;;;;;;;5.23;2.50;;;28.40;95.90;;;;;;5090604;28;20429;-45
2022/08/03 10:02:41;;;;;;;2.70;2.00;;;28.50;96.10;;;;;;5090104;28;20414;-43
2022/08/03 10:05:08;;;;;;;2.83;2.10;;;28.60;95.70;;;;;;5088882;28;20442;-42
2022/08/03 10:07:45;;;;;;;2.67;2.20;;;28.60;95.10;;;;;;5088572;28;20475;-43
2022/08/03 10:10:12;;;;;;;4.33;2.20;;;28.70;95.40;;;;;;5075228;28;20553;-43
2022/08/03 10:12:41;;;;;;;3.80;2.70;;;28.80;95.60;;;;;;5090094;28;20465;-45
2022/08/03 10:15:07;;;;;;;3.93;2.93;;;28.80;95.60;;;;;;5088504;28;20427;-43
2022/08/03 10:17:33;;;;;;;4.90;2.53;;;28.90;95.30;;;;;;5089653;28;20422;-43
2022/08/03 10:19:59;;;;;;;4.80;2.70;;;29.00;95.30;;;;;;5089227;28;20505;-43
2022/08/03 10:22:33;;;;;;;3.63;2.83;;;29.10;95.50;;;;;;5090156;28;20219;-43
2022/08/03 10:25:03;;;;;;;4.70;2.83;;;29.20;94.30;;;;;;5089973;28;20244;-42
2022/08/03 10:27:34;;;;;;;3.97;2.80;;;29.20;94.30;;;;;;5089458;28;20425;-42
2022/08/03 10:30:03;;;;;;;3.33;2.50;;;29.20;94.30;;;;;;5089896;28;21033;-42
2022/08/03 10:32:37;;;;;;;3.23;2.40;;;29.30;94.60;;;;;;5089978;28;20785;-42
2022/08/03 10:35:06;;;;;;;4.63;2.43;;;29.40;95.10;;;;;;5089930;28;20788;-44
2022/08/03 10:37:37;;;;;;;3.40;2.30;;;29.50;94.80;;;;;;5089255;28;20422;-42
2022/08/03 10:40:04;;;;;;;3.57;2.60;;;29.50;94.20;;;;;;5089888;28;20901;-44
2022/08/03 10:42:30;;;;;;;3.77;2.60;;;29.50;94.50;;;;;;5088292;28;20491;-42
2022/08/03 10:45:26;;;;;;;9.83;2.67;;;29.50;93.40;;;;;;5087679;28;20466;-42
2022/08/03 10:47:54;;;;;;;5.50;3.00;;;29.60;93.20;;;;;;5067763;28;20437;-43
2022/08/03 10:50:23;;;;;;;4.00;2.43;;;29.60;92.50;;;;;;5088295;28;20473;-43
2022/08/03 10:53:07;;;;;;;6.40;2.50;;;29.60;93.10;;;;;;5089389;28;20423;-43
2022/08/03 10:58:45;;;;;;;5.63;2.80;;;29.70;94.20;;;;;;5089077;28;20882;-43
2022/08/03 11:01:12;;;;;;;3.90;2.90;;;29.80;93.30;;;;;;5088807;28;20944;-45
2022/08/03 11:03:52;;;;;;;5.60;3.20;;;29.90;93.70;;;;;;5089265;28;20444;-44
2022/08/03 11:06:24;;;;;;;6.17;2.80;;;30.00;93.70;;;;;;5087375;28;20446;-42
2022/08/03 11:09:09;;;;;;;6.67;2.77;;;30.10;93.70;;;;;;5086222;28;20475;-44
2022/08/03 11:11:41;;;;;;;4.53;3.13;;;30.00;93.10;;;;;;5086911;28;20493;-43
2022/08/03 11:14:11;;;;;;;5.43;2.90;;;30.10;94.60;;;;;;5089114;28;20430;-44
2022/08/03 11:16:37;;;;;;;3.90;2.30;;;30.10;94.00;;;;;;5087201;28;20897;-44
2022/08/03 11:19:08;;;;;;;6.73;2.80;;;30.20;94.20;;;;;;5087147;28;20422;-42
2022/08/03 11:21:52;;;;;;;5.07;2.67;;;30.30;93.70;;;;;;5087723;28;20426;-46
2022/08/03 11:24:35;;;;;;;2.80;1.90;;;30.30;91.80;;;;;;5089587;28;20794;-44
2022/08/03 11:27:17;;;;;;;3.57;2.20;;;30.30;91.10;;;;;;5088690;28;20771;-42
2022/08/03 11:30:04;;;;;;;4.70;2.13;;;30.30;91.40;;;;;;5089491;28;20462;-42
2022/08/03 11:32:39;;;;;;;3.10;1.70;;;30.40;92.50;;;;;;5089382;28;20430;-43
2022/08/03 11:35:21;;;;;;;5.83;2.27;;;30.50;91.20;;;;;;5089345;28;20512;-43
2022/08/03 11:37:59;;;;;;;6.70;2.33;;;30.50;92.00;;;;;;5088735;28;20426;-42
2022/08/03 11:41:03;;;;;;;6.23;2.50;;;30.60;91.10;;;;;;5089277;28;20459;-42
2022/08/03 11:43:35;;;;;;;6.33;2.47;;;30.70;91.80;;;;;;5046168;28;20436;-44
2022/08/03 11:46:04;;;;;;;3.97;2.20;;;30.70;91.70;;;;;;5046230;28;20517;-42
2022/08/03 11:48:38;;;;;;;4.13;1.93;;;30.70;91.30;;;;;;5068355;28;20985;-43
2022/08/03 11:51:06;;;;;;;2.27;1.80;;;30.70;91.20;;;;;;5088817;28;20428;-43
2022/08/03 11:53:33;;;;;;;4.40;2.63;;;30.80;92.40;;;;;;5089350;28;20509;-42
2022/08/03 11:56:00;;;;;;;5.80;2.23;;;30.80;92.00;;;;;;5091773;28;20766;-43
2022/08/03 11:58:27;;;;;;;6.90;2.57;;;30.80;91.50;;;;;;5092253;28;20445;-43
2022/08/03 12:01:06;;;;;;;3.10;2.37;;;30.90;91.70;;;;;;5092651;28;20430;-43
2022/08/03 12:03:33;;;;;;;3.47;2.40;;;30.80;90.50;;;;;;5092519;28;20526;-43
2022/08/03 12:06:01;;;;;;;3.20;2.20;;;30.80;90.90;;;;;;5092404;28;20949;-43
2022/08/03 12:08:26;;;;;;;4.03;1.80;;;30.70;90.90;;;;;;5092052;28;20426;-42
2022/08/03 12:10:53;;;;;;;2.17;1.97;;;30.80;91.80;;;;;;5092474;28;20417;-43
2022/08/03 12:13:20;;;;;;;4.87;2.10;;;30.90;92.20;;;;;;5090983;28;20210;-42
2022/08/03 12:15:51;;;;;;;6.63;2.30;;;30.90;93.30;;;;;;5091219;28;21116;-42
2022/08/03 12:18:19;;;;;;;2.80;2.10;;;31.00;92.60;;;;;;5091450;28;20434;-43
2022/08/03 12:20:46;;;;;;;4.77;2.10;;;30.90;92.00;;;;;;5091612;28;20422;-42
2022/08/03 12:23:12;;;;;;;5.20;2.10;;;31.00;92.20;;;;;;5090943;28;20441;-45
2022/08/03 12:25:40;;;;;;;2.40;1.70;;;31.10;91.50;;;;;;5090961;28;20430;-42
2022/08/03 12:28:23;;;;;;;3.13;1.57;;;31.00;88.80;;;;;;5091718;28;20464;-42
2022/08/03 12:30:50;;;;;;;3.20;1.70;;;31.10;89.40;;;;;;5091997;28;20479;-43
2022/08/03 12:33:26;;;;;;;2.50;1.43;;;31.00;87.60;;;;;;5092102;28;20947;-43
2022/08/03 12:36:07;;;;;;;1.73;1.50;;;31.10;90.10;;;;;;5091986;28;20544;-43
2022/08/03 12:38:34;;;;;;;4.03;1.50;;;31.10;91.00;;;;;;5090266;28;20460;-44
2022/08/03 12:41:07;;;;;;;7.57;1.70;;;31.20;90.30;;;;;;5091497;28;20425;-43
2022/08/03 12:43:33;;;;;;;4.27;1.73;;;31.20;88.80;;;;;;5092261;28;20426;-42
2022/08/03 12:46:17;;;;;;;1.60;1.50;;;31.30;90.00;;;;;;5091734;28;20446;-42
2022/08/03 12:49:02;;;;;;;2.97;1.67;;;31.10;86.20;;;;;;5091078;28;20819;-43
2022/08/03 12:51:29;;;;;;;2.90;1.50;;;31.10;87.40;;;;;;5091554;28;20456;-45
2022/08/03 12:53:57;;;;;;;3.57;1.77;;;31.20;89.40;;;;;;5091795;28;20852;-43
2022/08/03 12:56:23;;;;;;;2.70;1.80;;;31.20;89.30;;;;;;5091710;28;20418;-45
2022/08/03 12:58:49;;;;;;;2.80;1.70;;;31.30;91.20;;;;;;5090820;28;20476;-42
2022/08/03 13:01:15;;;;;;;3.20;2.10;;;31.40;91.20;;;;;;5091728;28;20458;-43
2022/08/03 13:03:43;;;;;;;3.10;1.67;;;31.40;91.40;;;;;;5091491;28;20306;-43
2022/08/03 13:06:23;;;;;;;3.83;1.83;;;31.50;91.00;;;;;;5090475;28;20541;-45